sensor_id;sensor_type;location;lat;lon;timestamp;P1;durP1;ratioP1;P2;durP2;ratioP2
8319;SDS011;4197;42.130;24.746;2022-11-20T00:01:34;46.10;;;31.87;;
8319;SDS011;4197;42.130;24.746;2022-11-20T00:04:03;48.77;;;34.13;;
8319;SDS011;4197;42.130;24.746;2022-11-20T00:06:31;46.00;;;31.93;;
8319;SDS011;4197;42.130;24.746;2022-11-20T00:08:59;52.00;;;33.73;;
8319;SDS011;4197;42.130;24.746;2022-11-20T00:11:30;47.43;;;33.10;;
8319;SDS011;4197;42.130;24.746;2022-11-20T00:14:00;59.00;;;35.03;;
8319;SDS011;4197;42.130;24.746;2022-11-20T00:16:30;49.70;;;33.57;;
8319;SDS011;4197;42.130;24.746;2022-11-20T00:18:59;46.70;;;34.37;;
8319;SDS011;4197;42.130;24.746;2022-11-20T00:21:28;46.30;;;32.43;;
8319;SDS011;4197;42.130;24.746;2022-11-20T00:23:56;53.40;;;33.53;;
8319;SDS011;4197;42.130;24.746;2022-11-20T00:26:25;48.07;;;33.60;;
8319;SDS011;4197;42.130;24.746;2022-11-20T00:28:56;52.47;;;36.73;;
8319;SDS011;4197;42.130;24.746;2022-11-20T00:31:25;57.77;;;38.03;;
8319;SDS011;4197;42.130;24.746;2022-11-20T00:33:54;50.10;;;34.83;;
8319;SDS011;4197;42.130;24.746;2022-11-20T00:36:22;47.90;;;33.53;;
8319;SDS011;4197;42.130;24.746;2022-11-20T00:38:54;50.77;;;35.43;;
8319;SDS011;4197;42.130;24.746;2022-11-20T00:41:23;51.70;;;35.50;;
8319;SDS011;4197;42.130;24.746;2022-11-20T00:43:53;45.67;;;29.50;;
8319;SDS011;4197;42.130;24.746;2022-11-20T00:46:24;43.37;;;30.40;;
8319;SDS011;4197;42.130;24.746;2022-11-20T00:48:53;43.13;;;29.70;;
8319;SDS011;4197;42.130;24.746;2022-11-20T00:51:22;45.70;;;31.60;;
8319;SDS011;4197;42.130;24.746;2022-11-20T00:53:54;41.67;;;31.27;;
8319;SDS011;4197;42.130;24.746;2022-11-20T00:56:22;43.77;;;30.77;;
8319;SDS011;4197;42.130;24.746;2022-11-20T00:58:50;44.83;;;31.13;;
8319;SDS011;4197;42.130;24.746;2022-11-20T01:01:19;41.33;;;29.33;;
8319;SDS011;4197;42.130;24.746;2022-11-20T01:03:52;44.43;;;30.70;;
8319;SDS011;4197;42.130;24.746;2022-11-20T01:06:23;46.37;;;30.33;;
8319;SDS011;4197;42.130;24.746;2022-11-20T01:08:53;47.33;;;29.80;;
8319;SDS011;4197;42.130;24.746;2022-11-20T01:11:24;47.43;;;31.93;;
8319;SDS011;4197;42.130;24.746;2022-11-20T01:13:53;42.53;;;31.00;;
8319;SDS011;4197;42.130;24.746;2022-11-20T01:16:24;44.40;;;29.30;;
8319;SDS011;4197;42.130;24.746;2022-11-20T01:18:55;44.53;;;31.10;;
8319;SDS011;4197;42.130;24.746;2022-11-20T01:21:25;40.90;;;30.00;;
8319;SDS011;4197;42.130;24.746;2022-11-20T01:23:55;45.10;;;29.07;;
8319;SDS011;4197;42.130;24.746;2022-11-20T01:26:24;44.53;;;30.77;;
8319;SDS011;4197;42.130;24.746;2022-11-20T01:28:53;48.40;;;31.10;;
8319;SDS011;4197;42.130;24.746;2022-11-20T01:31:23;45.87;;;31.67;;
8319;SDS011;4197;42.130;24.746;2022-11-20T01:33:55;43.03;;;31.53;;
8319;SDS011;4197;42.130;24.746;2022-11-20T01:36:26;43.17;;;30.47;;
8319;SDS011;4197;42.130;24.746;2022-11-20T01:38:56;46.53;;;32.03;;
8319;SDS011;4197;42.130;24.746;2022-11-20T01:41:26;43.53;;;30.40;;
8319;SDS011;4197;42.130;24.746;2022-11-20T01:44:13;41.53;;;31.30;;
8319;SDS011;4197;42.130;24.746;2022-11-20T01:46:45;44.13;;;30.47;;
8319;SDS011;4197;42.130;24.746;2022-11-20T01:49:25;46.03;;;32.93;;
8319;SDS011;4197;42.130;24.746;2022-11-20T01:52:01;46.97;;;31.57;;
8319;SDS011;4197;42.130;24.746;2022-11-20T01:54:33;46.23;;;31.57;;
8319;SDS011;4197;42.130;24.746;2022-11-20T01:57:05;44.40;;;32.23;;
8319;SDS011;4197;42.130;24.746;2022-11-20T01:59:37;45.80;;;32.00;;
8319;SDS011;4197;42.130;24.746;2022-11-20T02:02:08;49.87;;;32.07;;
8319;SDS011;4197;42.130;24.746;2022-11-20T02:04:38;49.00;;;31.60;;
8319;SDS011;4197;42.130;24.746;2022-11-20T02:07:06;44.63;;;30.63;;
8319;SDS011;4197;42.130;24.746;2022-11-20T02:09:35;50.00;;;31.73;;
8319;SDS011;4197;42.130;24.746;2022-11-20T02:12:03;46.73;;;32.03;;
8319;SDS011;4197;42.130;24.746;2022-11-20T02:14:53;43.80;;;30.43;;
8319;SDS011;4197;42.130;24.746;2022-11-20T02:17:20;42.60;;;31.23;;
8319;SDS011;4197;42.130;24.746;2022-11-20T02:19:49;42.73;;;30.97;;
8319;SDS011;4197;42.130;24.746;2022-11-20T02:22:19;45.40;;;31.80;;
8319;SDS011;4197;42.130;24.746;2022-11-20T02:24:53;51.73;;;32.20;;
8319;SDS011;4197;42.130;24.746;2022-11-20T02:27:22;50.17;;;31.13;;
8319;SDS011;4197;42.130;24.746;2022-11-20T02:29:51;40.33;;;29.10;;
8319;SDS011;4197;42.130;24.746;2022-11-20T02:32:22;45.33;;;30.93;;
8319;SDS011;4197;42.130;24.746;2022-11-20T02:34:51;41.73;;;30.23;;
8319;SDS011;4197;42.130;24.746;2022-11-20T02:37:20;40.17;;;29.67;;
8319;SDS011;4197;42.130;24.746;2022-11-20T02:39:49;40.50;;;29.00;;
8319;SDS011;4197;42.130;24.746;2022-11-20T02:42:20;44.57;;;30.37;;
8319;SDS011;4197;42.130;24.746;2022-11-20T02:44:48;36.30;;;27.90;;
8319;SDS011;4197;42.130;24.746;2022-11-20T02:47:16;37.83;;;28.23;;
8319;SDS011;4197;42.130;24.746;2022-11-20T02:49:44;43.90;;;28.90;;
8319;SDS011;4197;42.130;24.746;2022-11-20T02:52:12;41.23;;;28.07;;
8319;SDS011;4197;42.130;24.746;2022-11-20T02:54:40;40.83;;;29.43;;
8319;SDS011;4197;42.130;24.746;2022-11-20T02:57:08;43.40;;;28.37;;
8319;SDS011;4197;42.130;24.746;2022-11-20T02:59:38;43.30;;;28.20;;
8319;SDS011;4197;42.130;24.746;2022-11-20T03:02:06;44.37;;;28.97;;
8319;SDS011;4197;42.130;24.746;2022-11-20T03:04:34;40.90;;;26.83;;
8319;SDS011;4197;42.130;24.746;2022-11-20T03:07:02;44.77;;;28.97;;
8319;SDS011;4197;42.130;24.746;2022-11-20T03:09:31;35.70;;;26.00;;
8319;SDS011;4197;42.130;24.746;2022-11-20T03:11:59;37.37;;;26.37;;
8319;SDS011;4197;42.130;24.746;2022-11-20T03:14:30;42.53;;;28.77;;
8319;SDS011;4197;42.130;24.746;2022-11-20T03:17:00;37.63;;;27.77;;
8319;SDS011;4197;42.130;24.746;2022-11-20T03:19:28;34.03;;;25.50;;
8319;SDS011;4197;42.130;24.746;2022-11-20T03:21:56;37.47;;;26.33;;
8319;SDS011;4197;42.130;24.746;2022-11-20T03:24:24;34.17;;;25.23;;
8319;SDS011;4197;42.130;24.746;2022-11-20T03:26:52;41.87;;;26.77;;
8319;SDS011;4197;42.130;24.746;2022-11-20T03:29:20;34.73;;;25.20;;
8319;SDS011;4197;42.130;24.746;2022-11-20T03:31:49;38.67;;;25.67;;
8319;SDS011;4197;42.130;24.746;2022-11-20T03:34:18;35.73;;;25.20;;
8319;SDS011;4197;42.130;24.746;2022-11-20T03:36:46;37.60;;;24.10;;
8319;SDS011;4197;42.130;24.746;2022-11-20T03:39:14;39.57;;;23.47;;
8319;SDS011;4197;42.130;24.746;2022-11-20T03:41:43;36.23;;;23.30;;
8319;SDS011;4197;42.130;24.746;2022-11-20T03:44:11;33.20;;;23.73;;
8319;SDS011;4197;42.130;24.746;2022-11-20T03:46:39;33.47;;;23.67;;
8319;SDS011;4197;42.130;24.746;2022-11-20T03:49:07;35.27;;;23.47;;
8319;SDS011;4197;42.130;24.746;2022-11-20T03:51:37;30.37;;;20.23;;
8319;SDS011;4197;42.130;24.746;2022-11-20T03:54:06;30.03;;;21.43;;
8319;SDS011;4197;42.130;24.746;2022-11-20T03:56:37;26.10;;;16.73;;
8319;SDS011;4197;42.130;24.746;2022-11-20T03:59:06;27.63;;;16.73;;
8319;SDS011;4197;42.130;24.746;2022-11-20T04:01:35;27.50;;;19.10;;
8319;SDS011;4197;42.130;24.746;2022-11-20T04:04:04;23.03;;;18.30;;
8319;SDS011;4197;42.130;24.746;2022-11-20T04:06:34;26.63;;;18.03;;
8319;SDS011;4197;42.130;24.746;2022-11-20T04:09:05;29.03;;;17.73;;
8319;SDS011;4197;42.130;24.746;2022-11-20T04:11:34;21.53;;;16.43;;
8319;SDS011;4197;42.130;24.746;2022-11-20T04:14:04;26.50;;;15.73;;
8319;SDS011;4197;42.130;24.746;2022-11-20T04:16:33;25.20;;;15.07;;
8319;SDS011;4197;42.130;24.746;2022-11-20T04:19:03;29.83;;;14.33;;
8319;SDS011;4197;42.130;24.746;2022-11-20T04:21:33;22.97;;;16.20;;
8319;SDS011;4197;42.130;24.746;2022-11-20T04:24:01;24.30;;;16.97;;
8319;SDS011;4197;42.130;24.746;2022-11-20T04:26:32;23.87;;;15.73;;
8319;SDS011;4197;42.130;24.746;2022-11-20T04:29:00;26.13;;;15.93;;
8319;SDS011;4197;42.130;24.746;2022-11-20T04:31:31;25.13;;;16.03;;
8319;SDS011;4197;42.130;24.746;2022-11-20T04:34:00;24.63;;;13.43;;
8319;SDS011;4197;42.130;24.746;2022-11-20T04:39:15;19.90;;;11.80;;
8319;SDS011;4197;42.130;24.746;2022-11-20T04:41:44;19.07;;;11.20;;
8319;SDS011;4197;42.130;24.746;2022-11-20T04:44:13;16.87;;;11.43;;
8319;SDS011;4197;42.130;24.746;2022-11-20T04:46:41;19.97;;;9.90;;
8319;SDS011;4197;42.130;24.746;2022-11-20T04:49:10;16.97;;;9.73;;
8319;SDS011;4197;42.130;24.746;2022-11-20T04:51:39;17.53;;;9.53;;
8319;SDS011;4197;42.130;24.746;2022-11-20T04:54:07;18.73;;;9.93;;
8319;SDS011;4197;42.130;24.746;2022-11-20T04:56:36;20.87;;;10.03;;
8319;SDS011;4197;42.130;24.746;2022-11-20T04:59:05;21.33;;;8.87;;
8319;SDS011;4197;42.130;24.746;2022-11-20T05:01:33;17.30;;;9.27;;
8319;SDS011;4197;42.130;24.746;2022-11-20T05:04:01;21.50;;;13.10;;
8319;SDS011;4197;42.130;24.746;2022-11-20T05:06:29;14.53;;;10.37;;
8319;SDS011;4197;42.130;24.746;2022-11-20T05:08:58;20.93;;;10.23;;
8319;SDS011;4197;42.130;24.746;2022-11-20T05:11:27;18.10;;;7.40;;
8319;SDS011;4197;42.130;24.746;2022-11-20T05:13:57;14.77;;;9.10;;
8319;SDS011;4197;42.130;24.746;2022-11-20T05:16:28;17.47;;;7.33;;
8319;SDS011;4197;42.130;24.746;2022-11-20T05:18:56;20.03;;;8.27;;
8319;SDS011;4197;42.130;24.746;2022-11-20T05:21:24;28.10;;;16.87;;
8319;SDS011;4197;42.130;24.746;2022-11-20T05:23:52;20.33;;;8.33;;
8319;SDS011;4197;42.130;24.746;2022-11-20T05:26:21;17.10;;;9.63;;
8319;SDS011;4197;42.130;24.746;2022-11-20T05:28:50;18.87;;;10.63;;
8319;SDS011;4197;42.130;24.746;2022-11-20T05:31:19;18.00;;;8.53;;
8319;SDS011;4197;42.130;24.746;2022-11-20T05:33:55;16.73;;;12.20;;
8319;SDS011;4197;42.130;24.746;2022-11-20T05:36:23;20.63;;;11.93;;
8319;SDS011;4197;42.130;24.746;2022-11-20T05:38:52;15.13;;;9.27;;
8319;SDS011;4197;42.130;24.746;2022-11-20T05:41:26;16.10;;;9.97;;
8319;SDS011;4197;42.130;24.746;2022-11-20T05:43:55;17.23;;;10.87;;
8319;SDS011;4197;42.130;24.746;2022-11-20T05:46:24;14.63;;;10.47;;
8319;SDS011;4197;42.130;24.746;2022-11-20T05:48:56;15.53;;;10.17;;
8319;SDS011;4197;42.130;24.746;2022-11-20T05:51:25;19.60;;;12.30;;
8319;SDS011;4197;42.130;24.746;2022-11-20T05:53:53;20.70;;;11.77;;
8319;SDS011;4197;42.130;24.746;2022-11-20T05:56:24;20.27;;;12.53;;
8319;SDS011;4197;42.130;24.746;2022-11-20T05:58:52;16.17;;;11.17;;
8319;SDS011;4197;42.130;24.746;2022-11-20T06:01:21;17.97;;;11.53;;
8319;SDS011;4197;42.130;24.746;2022-11-20T06:03:50;20.93;;;12.90;;
8319;SDS011;4197;42.130;24.746;2022-11-20T06:06:21;21.57;;;12.57;;
8319;SDS011;4197;42.130;24.746;2022-11-20T06:08:51;18.60;;;12.33;;
8319;SDS011;4197;42.130;24.746;2022-11-20T06:11:19;17.53;;;9.63;;
8319;SDS011;4197;42.130;24.746;2022-11-20T06:13:48;17.93;;;10.30;;
8319;SDS011;4197;42.130;24.746;2022-11-20T06:16:17;13.97;;;9.33;;
8319;SDS011;4197;42.130;24.746;2022-11-20T06:18:46;17.17;;;10.70;;
8319;SDS011;4197;42.130;24.746;2022-11-20T06:21:15;14.03;;;9.73;;
8319;SDS011;4197;42.130;24.746;2022-11-20T06:23:47;14.83;;;9.70;;
8319;SDS011;4197;42.130;24.746;2022-11-20T06:26:17;20.87;;;12.20;;
8319;SDS011;4197;42.130;24.746;2022-11-20T06:28:46;18.40;;;9.80;;
8319;SDS011;4197;42.130;24.746;2022-11-20T06:31:15;16.37;;;9.37;;
8319;SDS011;4197;42.130;24.746;2022-11-20T06:33:45;16.27;;;8.27;;
8319;SDS011;4197;42.130;24.746;2022-11-20T06:36:14;17.53;;;8.70;;
8319;SDS011;4197;42.130;24.746;2022-11-20T06:38:44;14.83;;;8.13;;
8319;SDS011;4197;42.130;24.746;2022-11-20T06:41:14;16.67;;;8.05;;
8319;SDS011;4197;42.130;24.746;2022-11-20T06:43:44;14.40;;;7.23;;
8319;SDS011;4197;42.130;24.746;2022-11-20T06:46:13;15.48;;;7.85;;
8319;SDS011;4197;42.130;24.746;2022-11-20T06:48:43;12.43;;;7.73;;
8319;SDS011;4197;42.130;24.746;2022-11-20T06:51:12;18.47;;;10.17;;
8319;SDS011;4197;42.130;24.746;2022-11-20T06:53:41;11.57;;;7.90;;
8319;SDS011;4197;42.130;24.746;2022-11-20T06:56:09;17.27;;;8.20;;
8319;SDS011;4197;42.130;24.746;2022-11-20T06:58:38;20.65;;;9.93;;
8319;SDS011;4197;42.130;24.746;2022-11-20T07:01:08;14.38;;;8.10;;
8319;SDS011;4197;42.130;24.746;2022-11-20T07:03:38;15.60;;;8.17;;
8319;SDS011;4197;42.130;24.746;2022-11-20T07:06:07;16.17;;;9.13;;
8319;SDS011;4197;42.130;24.746;2022-11-20T07:08:35;15.10;;;9.83;;
8319;SDS011;4197;42.130;24.746;2022-11-20T07:11:04;15.55;;;8.63;;
8319;SDS011;4197;42.130;24.746;2022-11-20T07:13:34;14.45;;;8.82;;
8319;SDS011;4197;42.130;24.746;2022-11-20T07:16:05;23.63;;;13.27;;
8319;SDS011;4197;42.130;24.746;2022-11-20T07:18:35;22.27;;;12.18;;
8319;SDS011;4197;42.130;24.746;2022-11-20T07:21:05;19.50;;;9.93;;
8319;SDS011;4197;42.130;24.746;2022-11-20T07:23:34;16.60;;;9.15;;
8319;SDS011;4197;42.130;24.746;2022-11-20T07:26:03;14.50;;;10.10;;
8319;SDS011;4197;42.130;24.746;2022-11-20T07:28:32;20.00;;;11.52;;
8319;SDS011;4197;42.130;24.746;2022-11-20T07:31:00;15.90;;;10.70;;
8319;SDS011;4197;42.130;24.746;2022-11-20T07:33:32;11.27;;;8.57;;
8319;SDS011;4197;42.130;24.746;2022-11-20T07:36:02;17.15;;;10.20;;
8319;SDS011;4197;42.130;24.746;2022-11-20T07:38:30;18.85;;;10.93;;
8319;SDS011;4197;42.130;24.746;2022-11-20T07:40:58;19.52;;;12.77;;
8319;SDS011;4197;42.130;24.746;2022-11-20T07:43:28;20.30;;;12.50;;
8319;SDS011;4197;42.130;24.746;2022-11-20T07:45:56;21.02;;;13.70;;
8319;SDS011;4197;42.130;24.746;2022-11-20T07:48:24;25.98;;;17.05;;
8319;SDS011;4197;42.130;24.746;2022-11-20T07:51:09;22.88;;;13.57;;
8319;SDS011;4197;42.130;24.746;2022-11-20T07:53:40;17.80;;;11.00;;
8319;SDS011;4197;42.130;24.746;2022-11-20T07:56:08;24.25;;;12.55;;
8319;SDS011;4197;42.130;24.746;2022-11-20T07:58:37;16.63;;;11.65;;
8319;SDS011;4197;42.130;24.746;2022-11-20T08:01:06;20.05;;;12.77;;
8319;SDS011;4197;42.130;24.746;2022-11-20T08:03:35;20.40;;;13.82;;
8319;SDS011;4197;42.130;24.746;2022-11-20T08:06:06;24.88;;;14.30;;
8319;SDS011;4197;42.130;24.746;2022-11-20T08:08:38;19.48;;;13.02;;
8319;SDS011;4197;42.130;24.746;2022-11-20T08:11:08;25.70;;;14.23;;
8319;SDS011;4197;42.130;24.746;2022-11-20T08:13:54;24.95;;;14.70;;
8319;SDS011;4197;42.130;24.746;2022-11-20T08:16:40;24.65;;;15.85;;
8319;SDS011;4197;42.130;24.746;2022-11-20T08:19:10;16.48;;;11.68;;
8319;SDS011;4197;42.130;24.746;2022-11-20T08:21:40;21.77;;;11.60;;
8319;SDS011;4197;42.130;24.746;2022-11-20T08:24:08;17.02;;;10.77;;
8319;SDS011;4197;42.130;24.746;2022-11-20T08:26:38;18.52;;;9.68;;
8319;SDS011;4197;42.130;24.746;2022-11-20T08:29:07;19.33;;;12.27;;
8319;SDS011;4197;42.130;24.746;2022-11-20T08:31:35;19.80;;;11.68;;
8319;SDS011;4197;42.130;24.746;2022-11-20T08:34:03;15.57;;;10.13;;
8319;SDS011;4197;42.130;24.746;2022-11-20T08:36:35;17.95;;;9.32;;
8319;SDS011;4197;42.130;24.746;2022-11-20T08:39:05;16.98;;;8.80;;
8319;SDS011;4197;42.130;24.746;2022-11-20T08:41:33;15.70;;;8.63;;
8319;SDS011;4197;42.130;24.746;2022-11-20T08:44:03;15.82;;;8.23;;
8319;SDS011;4197;42.130;24.746;2022-11-20T08:46:33;16.50;;;8.27;;
8319;SDS011;4197;42.130;24.746;2022-11-20T08:49:03;15.68;;;9.05;;
8319;SDS011;4197;42.130;24.746;2022-11-20T08:51:32;16.02;;;8.95;;
8319;SDS011;4197;42.130;24.746;2022-11-20T08:54:01;13.68;;;9.35;;
8319;SDS011;4197;42.130;24.746;2022-11-20T08:56:30;20.48;;;9.98;;
8319;SDS011;4197;42.130;24.746;2022-11-20T08:59:00;25.52;;;13.38;;
8319;SDS011;4197;42.130;24.746;2022-11-20T09:01:49;15.52;;;8.95;;
8319;SDS011;4197;42.130;24.746;2022-11-20T09:04:18;18.13;;;10.65;;
8319;SDS011;4197;42.130;24.746;2022-11-20T09:06:46;14.60;;;8.75;;
8319;SDS011;4197;42.130;24.746;2022-11-20T09:09:17;16.30;;;8.35;;
8319;SDS011;4197;42.130;24.746;2022-11-20T09:11:47;10.98;;;7.30;;
8319;SDS011;4197;42.130;24.746;2022-11-20T09:14:16;14.98;;;8.70;;
8319;SDS011;4197;42.130;24.746;2022-11-20T09:16:44;13.27;;;8.40;;
8319;SDS011;4197;42.130;24.746;2022-11-20T09:19:13;22.75;;;7.78;;
8319;SDS011;4197;42.130;24.746;2022-11-20T09:22:01;17.80;;;8.73;;
8319;SDS011;4197;42.130;24.746;2022-11-20T09:24:29;20.90;;;12.85;;
8319;SDS011;4197;42.130;24.746;2022-11-20T09:27:00;19.85;;;12.50;;
8319;SDS011;4197;42.130;24.746;2022-11-20T09:29:29;16.15;;;10.85;;
8319;SDS011;4197;42.130;24.746;2022-11-20T09:31:57;15.93;;;10.77;;
8319;SDS011;4197;42.130;24.746;2022-11-20T09:34:25;16.90;;;9.88;;
8319;SDS011;4197;42.130;24.746;2022-11-20T09:36:54;12.43;;;8.55;;
8319;SDS011;4197;42.130;24.746;2022-11-20T09:39:22;12.48;;;8.55;;
8319;SDS011;4197;42.130;24.746;2022-11-20T09:42:02;16.80;;;9.02;;
8319;SDS011;4197;42.130;24.746;2022-11-20T09:44:55;15.00;;;9.00;;
8319;SDS011;4197;42.130;24.746;2022-11-20T09:47:41;14.52;;;8.18;;
8319;SDS011;4197;42.130;24.746;2022-11-20T09:50:23;11.70;;;8.07;;
8319;SDS011;4197;42.130;24.746;2022-11-20T09:53:07;14.18;;;8.00;;
8319;SDS011;4197;42.130;24.746;2022-11-20T09:55:42;16.05;;;8.48;;
8319;SDS011;4197;42.130;24.746;2022-11-20T09:58:25;12.95;;;7.85;;
8319;SDS011;4197;42.130;24.746;2022-11-20T10:01:00;11.30;;;5.97;;
8319;SDS011;4197;42.130;24.746;2022-11-20T10:03:40;13.23;;;5.45;;
8319;SDS011;4197;42.130;24.746;2022-11-20T10:06:18;18.48;;;6.82;;
8319;SDS011;4197;42.130;24.746;2022-11-20T10:08:54;17.95;;;6.45;;
8319;SDS011;4197;42.130;24.746;2022-11-20T10:11:30;14.63;;;5.28;;
8319;SDS011;4197;42.130;24.746;2022-11-20T10:14:10;12.82;;;5.43;;
8319;SDS011;4197;42.130;24.746;2022-11-20T10:16:50;11.55;;;5.30;;
8319;SDS011;4197;42.130;24.746;2022-11-20T10:19:36;14.27;;;6.30;;
8319;SDS011;4197;42.130;24.746;2022-11-20T10:22:19;9.10;;;4.75;;
8319;SDS011;4197;42.130;24.746;2022-11-20T10:24:59;12.20;;;5.65;;
8319;SDS011;4197;42.130;24.746;2022-11-20T10:27:37;9.02;;;3.92;;
8319;SDS011;4197;42.130;24.746;2022-11-20T10:30:18;9.40;;;4.47;;
8319;SDS011;4197;42.130;24.746;2022-11-20T10:32:54;12.90;;;4.82;;
8319;SDS011;4197;42.130;24.746;2022-11-20T10:35:33;14.98;;;4.68;;
8319;SDS011;4197;42.130;24.746;2022-11-20T10:38:05;12.27;;;5.15;;
8319;SDS011;4197;42.130;24.746;2022-11-20T10:40:40;13.75;;;4.93;;
8319;SDS011;4197;42.130;24.746;2022-11-20T10:43:13;14.80;;;5.22;;
8319;SDS011;4197;42.130;24.746;2022-11-20T10:45:47;12.57;;;5.05;;
8319;SDS011;4197;42.130;24.746;2022-11-20T10:48:20;7.95;;;5.22;;
8319;SDS011;4197;42.130;24.746;2022-11-20T10:50:54;9.70;;;5.32;;
8319;SDS011;4197;42.130;24.746;2022-11-20T10:53:40;11.60;;;6.45;;
8319;SDS011;4197;42.130;24.746;2022-11-20T10:56:20;13.32;;;6.28;;
8319;SDS011;4197;42.130;24.746;2022-11-20T10:59:05;14.38;;;6.47;;
8319;SDS011;4197;42.130;24.746;2022-11-20T11:01:51;11.88;;;6.68;;
8319;SDS011;4197;42.130;24.746;2022-11-20T11:04:26;15.38;;;7.18;;
8319;SDS011;4197;42.130;24.746;2022-11-20T11:07:06;13.07;;;6.32;;
8319;SDS011;4197;42.130;24.746;2022-11-20T11:09:38;15.57;;;6.20;;
8319;SDS011;4197;42.130;24.746;2022-11-20T11:12:10;13.30;;;5.90;;
8319;SDS011;4197;42.130;24.746;2022-11-20T11:14:42;14.30;;;6.65;;
8319;SDS011;4197;42.130;24.746;2022-11-20T11:17:20;17.15;;;7.32;;
8319;SDS011;4197;42.130;24.746;2022-11-20T11:20:02;15.73;;;7.40;;
8319;SDS011;4197;42.130;24.746;2022-11-20T11:22:33;13.38;;;7.00;;
8319;SDS011;4197;42.130;24.746;2022-11-20T11:25:18;13.10;;;6.30;;
8319;SDS011;4197;42.130;24.746;2022-11-20T11:27:48;14.52;;;5.80;;
8319;SDS011;4197;42.130;24.746;2022-11-20T11:30:20;13.95;;;6.85;;
8319;SDS011;4197;42.130;24.746;2022-11-20T11:32:50;12.25;;;6.50;;
8319;SDS011;4197;42.130;24.746;2022-11-20T11:35:29;12.55;;;6.95;;
8319;SDS011;4197;42.130;24.746;2022-11-20T11:38:02;14.05;;;6.25;;
8319;SDS011;4197;42.130;24.746;2022-11-20T11:40:35;10.10;;;5.30;;
8319;SDS011;4197;42.130;24.746;2022-11-20T11:43:16;13.90;;;7.30;;
8319;SDS011;4197;42.130;24.746;2022-11-20T11:46:04;13.02;;;7.28;;
8319;SDS011;4197;42.130;24.746;2022-11-20T11:48:56;14.35;;;5.78;;
8319;SDS011;4197;42.130;24.746;2022-11-20T11:51:26;10.60;;;6.25;;
8319;SDS011;4197;42.130;24.746;2022-11-20T11:54:02;16.20;;;6.38;;
8319;SDS011;4197;42.130;24.746;2022-11-20T11:56:36;12.15;;;6.05;;
8319;SDS011;4197;42.130;24.746;2022-11-20T11:59:04;14.40;;;7.07;;
8319;SDS011;4197;42.130;24.746;2022-11-20T12:01:41;10.38;;;4.70;;
8319;SDS011;4197;42.130;24.746;2022-11-20T12:04:19;14.80;;;4.60;;
8319;SDS011;4197;42.130;24.746;2022-11-20T12:07:07;12.32;;;4.93;;
8319;SDS011;4197;42.130;24.746;2022-11-20T12:09:59;13.27;;;3.80;;
8319;SDS011;4197;42.130;24.746;2022-11-20T12:12:30;11.05;;;4.57;;
8319;SDS011;4197;42.130;24.746;2022-11-20T12:15:04;12.38;;;5.10;;
8319;SDS011;4197;42.130;24.746;2022-11-20T12:17:37;12.40;;;6.18;;
8319;SDS011;4197;42.130;24.746;2022-11-20T12:20:10;15.73;;;5.75;;
8319;SDS011;4197;42.130;24.746;2022-11-20T12:22:42;16.33;;;6.72;;
8319;SDS011;4197;42.130;24.746;2022-11-20T12:25:21;14.85;;;6.63;;
8319;SDS011;4197;42.130;24.746;2022-11-20T12:30:50;12.73;;;4.82;;
8319;SDS011;4197;42.130;24.746;2022-11-20T12:33:34;13.38;;;4.80;;
8319;SDS011;4197;42.130;24.746;2022-11-20T12:36:17;10.75;;;5.00;;
8319;SDS011;4197;42.130;24.746;2022-11-20T12:39:07;12.45;;;5.30;;
8319;SDS011;4197;42.130;24.746;2022-11-20T12:41:51;14.90;;;3.55;;
8319;SDS011;4197;42.130;24.746;2022-11-20T12:44:59;16.35;;;4.40;;
8319;SDS011;4197;42.130;24.746;2022-11-20T12:50:41;12.05;;;4.47;;
8319;SDS011;4197;42.130;24.746;2022-11-20T12:53:41;15.98;;;4.60;;
8319;SDS011;4197;42.130;24.746;2022-11-20T12:56:21;15.65;;;5.20;;
8319;SDS011;4197;42.130;24.746;2022-11-20T12:59:03;13.60;;;4.68;;
8319;SDS011;4197;42.130;24.746;2022-11-20T13:01:47;14.00;;;4.45;;
8319;SDS011;4197;42.130;24.746;2022-11-20T13:04:24;13.75;;;4.35;;
8319;SDS011;4197;42.130;24.746;2022-11-20T13:07:16;17.70;;;4.97;;
8319;SDS011;4197;42.130;24.746;2022-11-20T13:09:48;18.35;;;6.00;;
8319;SDS011;4197;42.130;24.746;2022-11-20T13:12:19;16.85;;;5.53;;
8319;SDS011;4197;42.130;24.746;2022-11-20T13:14:53;17.25;;;6.18;;
8319;SDS011;4197;42.130;24.746;2022-11-20T13:17:28;14.40;;;6.28;;
8319;SDS011;4197;42.130;24.746;2022-11-20T13:20:02;16.40;;;6.00;;
8319;SDS011;4197;42.130;24.746;2022-11-20T13:22:42;12.82;;;5.32;;
8319;SDS011;4197;42.130;24.746;2022-11-20T13:25:23;15.45;;;6.45;;
8319;SDS011;4197;42.130;24.746;2022-11-20T13:27:52;17.77;;;6.00;;
8319;SDS011;4197;42.130;24.746;2022-11-20T13:30:22;19.58;;;5.55;;
8319;SDS011;4197;42.130;24.746;2022-11-20T13:32:52;16.48;;;5.53;;
8319;SDS011;4197;42.130;24.746;2022-11-20T13:35:26;12.32;;;5.18;;
8319;SDS011;4197;42.130;24.746;2022-11-20T13:38:00;16.92;;;5.20;;
8319;SDS011;4197;42.130;24.746;2022-11-20T13:40:32;10.65;;;4.20;;
8319;SDS011;4197;42.130;24.746;2022-11-20T13:43:04;16.52;;;5.45;;
8319;SDS011;4197;42.130;24.746;2022-11-20T13:45:38;17.30;;;5.65;;
8319;SDS011;4197;42.130;24.746;2022-11-20T13:48:18;15.52;;;4.43;;
8319;SDS011;4197;42.130;24.746;2022-11-20T13:50:51;14.68;;;4.63;;
8319;SDS011;4197;42.130;24.746;2022-11-20T13:53:31;12.25;;;3.95;;
8319;SDS011;4197;42.130;24.746;2022-11-20T13:56:09;15.02;;;5.07;;
8319;SDS011;4197;42.130;24.746;2022-11-20T13:58:52;16.73;;;3.95;;
8319;SDS011;4197;42.130;24.746;2022-11-20T14:01:30;12.43;;;3.40;;
8319;SDS011;4197;42.130;24.746;2022-11-20T14:04:05;16.23;;;3.03;;
8319;SDS011;4197;42.130;24.746;2022-11-20T14:06:39;8.80;;;2.40;;
8319;SDS011;4197;42.130;24.746;2022-11-20T14:09:10;6.90;;;1.88;;
8319;SDS011;4197;42.130;24.746;2022-11-20T14:11:46;10.13;;;1.90;;
8319;SDS011;4197;42.130;24.746;2022-11-20T14:14:16;8.07;;;1.42;;
8319;SDS011;4197;42.130;24.746;2022-11-20T14:16:48;5.25;;;1.48;;
8319;SDS011;4197;42.130;24.746;2022-11-20T14:19:27;3.15;;;1.73;;
8319;SDS011;4197;42.130;24.746;2022-11-20T14:22:10;4.57;;;1.58;;
8319;SDS011;4197;42.130;24.746;2022-11-20T14:24:45;4.20;;;1.13;;
8319;SDS011;4197;42.130;24.746;2022-11-20T14:27:16;5.50;;;1.08;;
8319;SDS011;4197;42.130;24.746;2022-11-20T14:29:46;3.30;;;1.05;;
8319;SDS011;4197;42.130;24.746;2022-11-20T14:32:17;4.20;;;1.23;;
8319;SDS011;4197;42.130;24.746;2022-11-20T14:34:47;3.25;;;1.55;;
8319;SDS011;4197;42.130;24.746;2022-11-20T14:37:18;5.10;;;1.85;;
8319;SDS011;4197;42.130;24.746;2022-11-20T14:39:50;2.42;;;1.25;;
8319;SDS011;4197;42.130;24.746;2022-11-20T14:42:22;5.13;;;1.95;;
8319;SDS011;4197;42.130;24.746;2022-11-20T14:44:51;3.35;;;2.10;;
8319;SDS011;4197;42.130;24.746;2022-11-20T14:47:23;5.22;;;2.83;;
8319;SDS011;4197;42.130;24.746;2022-11-20T14:49:53;4.03;;;2.42;;
8319;SDS011;4197;42.130;24.746;2022-11-20T14:52:23;5.07;;;3.10;;
8319;SDS011;4197;42.130;24.746;2022-11-20T14:54:53;7.05;;;3.88;;
8319;SDS011;4197;42.130;24.746;2022-11-20T14:57:25;4.55;;;2.88;;
8319;SDS011;4197;42.130;24.746;2022-11-20T15:00:05;4.88;;;2.50;;
8319;SDS011;4197;42.130;24.746;2022-11-20T15:02:38;6.85;;;3.47;;
8319;SDS011;4197;42.130;24.746;2022-11-20T15:05:09;5.53;;;4.38;;
8319;SDS011;4197;42.130;24.746;2022-11-20T15:07:38;6.15;;;3.17;;
8319;SDS011;4197;42.130;24.746;2022-11-20T15:10:12;4.57;;;3.78;;
8319;SDS011;4197;42.130;24.746;2022-11-20T15:12:48;5.38;;;2.47;;
8319;SDS011;4197;42.130;24.746;2022-11-20T15:15:21;6.35;;;3.67;;
8319;SDS011;4197;42.130;24.746;2022-11-20T15:17:52;18.42;;;11.07;;
8319;SDS011;4197;42.130;24.746;2022-11-20T15:20:20;7.75;;;5.32;;
8319;SDS011;4197;42.130;24.746;2022-11-20T15:22:51;6.32;;;3.28;;